FAB470 SLTJ-SLAL
Flight info
| Callsign | FAB470 |
|---|---|
| Flight time | N/A |
| Altitude | 19000 |
| Route | SLTJ KOTKI1 KOTKI DCT ALC |
| Aircraft | B350/L-VGD/A |
Departure
| Time | N/A |
|---|---|
| Airport | Capitan Oriel Lea Plaza Airport (SLTJ) |
Arrival
| Time | 2026-05-04 02:42 |
|---|---|
| Airport | Alcantarí International Airport (SLAL) |
| Time | Latitude | Longitude | Altitude | Speed | Heading |
|---|---|---|---|---|---|
| 2026-05-04 01:47 | -21.54863 | -64.70899 | 0 ft | 0 kts | 166° |
| 2026-05-04 01:56 | -21.54881 | -64.70905 | 0 ft | 17 kts | 212° |
| 2026-05-04 01:56 | -21.54777 | -64.71048 | 0 ft | 29 kts | 288° |
| 2026-05-04 01:56 | -21.54769 | -64.71131 | 0 ft | 0 kts | 257° |
| 2026-05-04 01:57 | -21.54777 | -64.71152 | 0 ft | 12 kts | 237° |
| 2026-05-04 01:57 | -21.54839 | -64.71245 | 0 ft | 6 kts | 274° |
| 2026-05-04 01:57 | -21.54821 | -64.71273 | 0 ft | 9 kts | 320° |
| 2026-05-04 01:57 | -21.54807 | -64.71315 | 0 ft | 0 kts | 204° |
| 2026-05-04 01:58 | -21.54839 | -64.71256 | 0 ft | 7 kts | 99° |
| 2026-05-04 01:58 | -21.54858 | -64.71217 | 0 ft | 0 kts | 124° |
| 2026-05-04 01:58 | -21.54859 | -64.71215 | 0 ft | 0 kts | 124° |
| 2026-05-04 02:02 | -21.54935 | -64.71096 | 0 ft | 50 kts | 124° |
| 2026-05-04 02:02 | -21.55252 | -64.70599 | 0 ft | 109 kts | 124° |
| 2026-05-04 02:02 | -21.55771 | -64.69786 | 0 ft | 150 kts | 122° |
| 2026-05-04 02:03 | -21.56335 | -64.68780 | 0 ft | 163 kts | 122° |
| 2026-05-04 02:03 | -21.56965 | -64.67673 | 0 ft | 170 kts | 123° |
| 2026-05-04 02:03 | -21.57470 | -64.66764 | 0 ft | 129 kts | 122° |
| 2026-05-04 02:03 | -21.57923 | -64.65926 | 0 ft | 146 kts | 122° |
| 2026-05-04 02:04 | -21.58608 | -64.64733 | 0 ft | 216 kts | 123° |
| 2026-05-04 02:04 | -21.59402 | -64.63353 | 0 ft | 220 kts | 122° |
| 2026-05-04 02:04 | -21.60124 | -64.62036 | 0 ft | 227 kts | 121° |
| 2026-05-04 02:04 | -21.61029 | -64.60699 | 0 ft | 219 kts | 135° |
| 2026-05-04 02:05 | -21.62332 | -64.59923 | 0 ft | 223 kts | 174° |
| 2026-05-04 02:05 | -21.63811 | -64.60284 | 0 ft | 219 kts | 214° |
| 2026-05-04 02:05 | -21.64795 | -64.61508 | 0 ft | 221 kts | 252° |
| 2026-05-04 02:05 | -21.64908 | -64.63107 | 0 ft | 211 kts | 276° |
| 2026-05-04 02:06 | -21.64573 | -64.64701 | 0 ft | 227 kts | 285° |
| 2026-05-04 02:06 | -21.64144 | -64.66318 | 0 ft | 222 kts | 283° |
| 2026-05-04 02:06 | -21.63841 | -64.67930 | 0 ft | 220 kts | 282° |
| 2026-05-04 02:06 | -21.63231 | -64.69415 | 0 ft | 223 kts | 307° |
| 2026-05-04 02:07 | -21.61894 | -64.70303 | 0 ft | 237 kts | 351° |
| 2026-05-04 02:07 | -21.60257 | -64.70213 | 0 ft | 233 kts | 3° |
| 2026-05-04 02:07 | -21.58677 | -64.70239 | 0 ft | 226 kts | 353° |
| 2026-05-04 02:07 | -21.57095 | -64.70413 | 0 ft | 238 kts | 351° |
| 2026-05-04 02:08 | -21.55418 | -64.70667 | 0 ft | 245 kts | 348° |
| 2026-05-04 02:08 | -21.53747 | -64.70964 | 0 ft | 241 kts | 348° |
| 2026-05-04 02:08 | -21.52137 | -64.71453 | 0 ft | 237 kts | 338° |
| 2026-05-04 02:08 | -21.50564 | -64.71950 | 0 ft | 236 kts | 347° |
| 2026-05-04 02:09 | -21.48936 | -64.72218 | 0 ft | 238 kts | 352° |
| 2026-05-04 02:09 | -21.47289 | -64.72426 | 0 ft | 238 kts | 350° |
| 2026-05-04 02:09 | -21.45650 | -64.72735 | 0 ft | 240 kts | 347° |
| 2026-05-04 02:09 | -21.44004 | -64.73069 | 0 ft | 240 kts | 349° |
| 2026-05-04 02:10 | -21.42367 | -64.73302 | 0 ft | 233 kts | 351° |
| 2026-05-04 02:10 | -21.40772 | -64.73561 | 0 ft | 230 kts | 349° |
| 2026-05-04 02:10 | -21.39171 | -64.73767 | 0 ft | 234 kts | 352° |
| 2026-05-04 02:10 | -21.37536 | -64.73909 | 0 ft | 236 kts | 354° |
| 2026-05-04 02:11 | -21.35914 | -64.74036 | 0 ft | 230 kts | 355° |
| 2026-05-04 02:11 | -21.34361 | -64.74004 | 0 ft | 226 kts | 11° |
| 2026-05-04 02:11 | -21.32790 | -64.73651 | 0 ft | 233 kts | 5° |
| 2026-05-04 02:11 | -21.31176 | -64.73574 | 0 ft | 234 kts | 359° |
| 2026-05-04 02:12 | -21.29557 | -64.73551 | 0 ft | 230 kts | 356° |
| 2026-05-04 02:12 | -21.27974 | -64.73634 | 0 ft | 225 kts | 353° |
| 2026-05-04 02:12 | -21.26405 | -64.73788 | 0 ft | 226 kts | 354° |
| 2026-05-04 02:12 | -21.24836 | -64.73841 | 0 ft | 225 kts | 356° |
| 2026-05-04 02:13 | -21.23287 | -64.74086 | 0 ft | 227 kts | 345° |
| 2026-05-04 02:13 | -21.21759 | -64.74490 | 0 ft | 224 kts | 345° |
| 2026-05-04 02:13 | -21.20267 | -64.74972 | 0 ft | 225 kts | 335° |
| 2026-05-04 02:13 | -21.18884 | -64.75768 | 0 ft | 228 kts | 323° |
| 2026-05-04 02:14 | -21.17612 | -64.76826 | 0 ft | 231 kts | 323° |
| 2026-05-04 02:14 | -21.16265 | -64.77729 | 0 ft | 227 kts | 331° |
| 2026-05-04 02:14 | -21.14783 | -64.78350 | 0 ft | 231 kts | 341° |
| 2026-05-04 02:14 | -21.13225 | -64.78757 | 0 ft | 230 kts | 348° |
| 2026-05-04 02:15 | -21.11637 | -64.79060 | 0 ft | 234 kts | 348° |
| 2026-05-04 02:15 | -21.10016 | -64.79434 | 0 ft | 243 kts | 341° |
| 2026-05-04 02:15 | -21.08419 | -64.80114 | 0 ft | 247 kts | 335° |
| 2026-05-04 02:15 | -21.06783 | -64.80570 | 0 ft | 244 kts | 352° |
| 2026-05-04 02:16 | -21.05107 | -64.80708 | 0 ft | 239 kts | 355° |
| 2026-05-04 02:16 | -21.03448 | -64.80839 | 0 ft | 239 kts | 353° |
| 2026-05-04 02:16 | -21.01785 | -64.81003 | 0 ft | 246 kts | 351° |
| 2026-05-04 02:16 | -21.00088 | -64.81276 | 0 ft | 247 kts | 348° |
| 2026-05-04 02:17 | -20.98390 | -64.81555 | 0 ft | 247 kts | 351° |
| 2026-05-04 02:17 | -20.96669 | -64.81800 | 0 ft | 252 kts | 351° |
| 2026-05-04 02:17 | -20.94909 | -64.81965 | 0 ft | 259 kts | 353° |
| 2026-05-04 02:17 | -20.93099 | -64.82147 | 0 ft | 263 kts | 352° |
| 2026-05-04 02:18 | -20.91260 | -64.82401 | 0 ft | 269 kts | 352° |
| 2026-05-04 02:18 | -20.89388 | -64.82593 | 0 ft | 270 kts | 353° |
| 2026-05-04 02:18 | -20.87505 | -64.82843 | 0 ft | 275 kts | 350° |
| 2026-05-04 02:18 | -20.85611 | -64.83218 | 0 ft | 281 kts | 347° |
| 2026-05-04 02:19 | -20.83709 | -64.83683 | 0 ft | 281 kts | 343° |
| 2026-05-04 02:19 | -20.81828 | -64.84292 | 0 ft | 282 kts | 341° |
| 2026-05-04 02:19 | -20.79936 | -64.84911 | 0 ft | 287 kts | 343° |
| 2026-05-04 02:19 | -20.77993 | -64.85312 | 0 ft | 282 kts | 350° |
| 2026-05-04 02:20 | -20.76062 | -64.85619 | 0 ft | 277 kts | 349° |
| 2026-05-04 02:20 | -20.74168 | -64.85964 | 0 ft | 274 kts | 348° |
| 2026-05-04 02:20 | -20.72330 | -64.86352 | 0 ft | 266 kts | 347° |
| 2026-05-04 02:20 | -20.70518 | -64.86735 | 0 ft | 264 kts | 348° |
| 2026-05-04 02:21 | -20.68731 | -64.87108 | 0 ft | 262 kts | 347° |
| 2026-05-04 02:21 | -20.66944 | -64.87485 | 0 ft | 259 kts | 346° |
| 2026-05-04 02:21 | -20.65192 | -64.87822 | 0 ft | 255 kts | 348° |
| 2026-05-04 02:21 | -20.63455 | -64.88161 | 0 ft | 251 kts | 345° |
| 2026-05-04 02:22 | -20.61803 | -64.88660 | 0 ft | 249 kts | 338° |
| 2026-05-04 02:22 | -20.60226 | -64.89412 | 0 ft | 249 kts | 330° |
| 2026-05-04 02:22 | -20.58727 | -64.90349 | 0 ft | 251 kts | 334° |
| 2026-05-04 02:22 | -20.57034 | -64.90820 | 0 ft | 254 kts | 353° |
| 2026-05-04 02:23 | -20.55243 | -64.90842 | 0 ft | 258 kts | 359° |
| 2026-05-04 02:23 | -20.53460 | -64.90774 | 0 ft | 256 kts | 2° |
| 2026-05-04 02:23 | -20.51689 | -64.90557 | 0 ft | 258 kts | 8° |
| 2026-05-04 02:23 | -20.49913 | -64.90399 | 0 ft | 256 kts | 354° |
| 2026-05-04 02:24 | -20.48171 | -64.90755 | 0 ft | 254 kts | 343° |
| 2026-05-04 02:24 | -20.46509 | -64.91358 | 0 ft | 251 kts | 336° |
| 2026-05-04 02:24 | -20.44903 | -64.92071 | 0 ft | 249 kts | 339° |
| 2026-05-04 02:24 | -20.43195 | -64.92447 | 0 ft | 252 kts | 351° |
| 2026-05-04 02:25 | -20.41471 | -64.92683 | 0 ft | 255 kts | 351° |
| 2026-05-04 02:25 | -20.39710 | -64.92916 | 0 ft | 255 kts | 351° |
| 2026-05-04 02:25 | -20.37968 | -64.93199 | 0 ft | 251 kts | 348° |
| 2026-05-04 02:25 | -20.36248 | -64.93505 | 0 ft | 252 kts | 348° |
| 2026-05-04 02:26 | -20.34514 | -64.93844 | 0 ft | 253 kts | 347° |
| 2026-05-04 02:26 | -20.32796 | -64.94220 | 0 ft | 252 kts | 347° |
| 2026-05-04 02:26 | -20.31068 | -64.94543 | 0 ft | 252 kts | 350° |
| 2026-05-04 02:26 | -20.29311 | -64.94804 | 0 ft | 258 kts | 351° |
| 2026-05-04 02:27 | -20.27534 | -64.95059 | 0 ft | 255 kts | 349° |
| 2026-05-04 02:27 | -20.25799 | -64.95387 | 0 ft | 251 kts | 349° |
| 2026-05-04 02:27 | -20.24036 | -64.95645 | 0 ft | 260 kts | 351° |
| 2026-05-04 02:27 | -20.22235 | -64.95803 | 0 ft | 258 kts | 355° |
| 2026-05-04 02:28 | -20.20504 | -64.95929 | 0 ft | 246 kts | 353° |
| 2026-05-04 02:28 | -20.18853 | -64.96256 | 0 ft | 237 kts | 343° |
| 2026-05-04 02:28 | -20.17290 | -64.96691 | 0 ft | 224 kts | 340° |
| 2026-05-04 02:28 | -20.15805 | -64.97072 | 0 ft | 218 kts | 345° |
| 2026-05-04 02:29 | -20.14288 | -64.97411 | 0 ft | 227 kts | 348° |
| 2026-05-04 02:29 | -20.12708 | -64.97676 | 0 ft | 232 kts | 351° |
| 2026-05-04 02:29 | -20.11107 | -64.97961 | 0 ft | 237 kts | 343° |
| 2026-05-04 02:29 | -20.09512 | -64.98473 | 0 ft | 240 kts | 341° |
| 2026-05-04 02:30 | -20.07913 | -64.98976 | 0 ft | 241 kts | 343° |
| 2026-05-04 02:30 | -20.06293 | -64.99382 | 0 ft | 240 kts | 348° |
| 2026-05-04 02:30 | -20.04631 | -64.99656 | 0 ft | 241 kts | 348° |
| 2026-05-04 02:30 | -20.02987 | -64.99948 | 0 ft | 237 kts | 349° |
| 2026-05-04 02:31 | -20.01359 | -65.00209 | 0 ft | 236 kts | 351° |
| 2026-05-04 02:31 | -19.99726 | -65.00424 | 0 ft | 236 kts | 349° |
| 2026-05-04 02:31 | -19.98124 | -65.00696 | 0 ft | 231 kts | 348° |
| 2026-05-04 02:31 | -19.96530 | -65.00976 | 0 ft | 235 kts | 348° |
| 2026-05-04 02:32 | -19.94924 | -65.01343 | 0 ft | 235 kts | 343° |
| 2026-05-04 02:32 | -19.93369 | -65.01807 | 0 ft | 227 kts | 343° |
| 2026-05-04 02:32 | -19.91832 | -65.02068 | 0 ft | 220 kts | 349° |
| 2026-05-04 02:32 | -19.90340 | -65.02287 | 0 ft | 215 kts | 351° |
| 2026-05-04 02:33 | -19.88864 | -65.02482 | 0 ft | 216 kts | 350° |
| 2026-05-04 02:33 | -19.87404 | -65.02691 | 0 ft | 210 kts | 350° |
| 2026-05-04 02:33 | -19.85936 | -65.02919 | 0 ft | 216 kts | 348° |
| 2026-05-04 02:33 | -19.84440 | -65.03193 | 0 ft | 220 kts | 348° |
| 2026-05-04 02:34 | -19.82926 | -65.03439 | 0 ft | 223 kts | 352° |
| 2026-05-04 02:34 | -19.81381 | -65.03627 | 0 ft | 223 kts | 348° |
| 2026-05-04 02:34 | -19.79869 | -65.04012 | 0 ft | 225 kts | 342° |
| 2026-05-04 02:34 | -19.78382 | -65.04582 | 0 ft | 229 kts | 336° |
| 2026-05-04 02:35 | -19.76850 | -65.05059 | 0 ft | 231 kts | 347° |
| 2026-05-04 02:35 | -19.75263 | -65.05352 | 0 ft | 231 kts | 349° |
| 2026-05-04 02:35 | -19.73663 | -65.05566 | 0 ft | 233 kts | 349° |
| 2026-05-04 02:35 | -19.72055 | -65.05821 | 0 ft | 236 kts | 351° |
| 2026-05-04 02:36 | -19.70976 | -65.05954 | 0 ft | 236 kts | 351° |
| 2026-05-04 02:36 | -19.68789 | -65.06235 | 0 ft | 238 kts | 353° |
| 2026-05-04 02:36 | -19.67121 | -65.06417 | 0 ft | 247 kts | 352° |
| 2026-05-04 02:36 | -19.65979 | -65.06528 | 0 ft | 248 kts | 352° |
| 2026-05-04 02:37 | -19.64295 | -65.06769 | 0 ft | 242 kts | 346° |
| 2026-05-04 02:37 | -19.62674 | -65.07210 | 0 ft | 240 kts | 340° |
| 2026-05-04 02:37 | -19.61072 | -65.07730 | 0 ft | 243 kts | 342° |
| 2026-05-04 02:37 | -19.59413 | -65.08072 | 0 ft | 246 kts | 349° |
| 2026-05-04 02:38 | -19.57715 | -65.08392 | 0 ft | 246 kts | 349° |
| 2026-05-04 02:38 | -19.56029 | -65.08645 | 0 ft | 246 kts | 351° |
| 2026-05-04 02:38 | -19.54315 | -65.08899 | 0 ft | 253 kts | 348° |
| 2026-05-04 02:38 | -19.52564 | -65.09252 | 0 ft | 257 kts | 348° |
| 2026-05-04 02:39 | -19.50809 | -65.09640 | 0 ft | 258 kts | 347° |
| 2026-05-04 02:39 | -19.49038 | -65.10012 | 0 ft | 259 kts | 347° |
| 2026-05-04 02:39 | -19.47318 | -65.10386 | 0 ft | 250 kts | 348° |
| 2026-05-04 02:39 | -19.45630 | -65.10641 | 0 ft | 236 kts | 353° |
| 2026-05-04 02:40 | -19.44062 | -65.10876 | 0 ft | 224 kts | 349° |
| 2026-05-04 02:40 | -19.42555 | -65.11116 | 0 ft | 216 kts | 349° |
| 2026-05-04 02:40 | -19.41075 | -65.11399 | 0 ft | 213 kts | 346° |
| 2026-05-04 02:40 | -19.39681 | -65.11682 | 0 ft | 200 kts | 346° |
| 2026-05-04 02:41 | -19.38264 | -65.11964 | 0 ft | 213 kts | 347° |
| 2026-05-04 02:41 | -19.36706 | -65.12184 | 0 ft | 247 kts | 358° |
| 2026-05-04 02:41 | -19.34928 | -65.12294 | 0 ft | 248 kts | 354° |
| 2026-05-04 02:41 | -19.33347 | -65.12403 | 0 ft | 223 kts | 355° |
| 2026-05-04 02:42 | -19.31894 | -65.12868 | 0 ft | 217 kts | 327° |
| 2026-05-04 02:42 | -19.30631 | -65.13799 | 0 ft | 218 kts | 328° |
| 2026-05-04 02:42 | -19.29158 | -65.13823 | 0 ft | 219 kts | 8° |
| 2026-05-04 02:42 | -19.28715 | -65.13755 | 0 ft | 0 kts | 7° |